createdAt,value
2023-01-20T00:01:31.173Z,49.70
2023-01-20T00:03:58.244Z,52.60
2023-01-20T00:06:30.532Z,31.20
2023-01-20T00:08:59.614Z,33.90
2023-01-20T00:11:26.385Z,27.40
2023-01-20T00:13:57.057Z,32.10
2023-01-20T00:16:24.037Z,32.70
2023-01-20T00:18:50.759Z,31.80
2023-01-20T00:21:17.515Z,30.70
2023-01-20T00:23:44.847Z,38.20
2023-01-20T00:26:13.533Z,27.80
2023-01-20T00:28:40.258Z,29.60
2023-01-20T00:31:36.554Z,29.90
2023-01-20T00:34:03.575Z,27.30
2023-01-20T00:36:31.420Z,26.20
2023-01-20T00:38:58.121Z,33.70
2023-01-20T00:41:24.894Z,27.20
2023-01-20T00:43:51.807Z,28.70
2023-01-20T00:46:18.593Z,34.90
2023-01-20T00:48:45.858Z,40.60
2023-01-20T00:51:12.866Z,37.20
2023-01-20T00:53:39.655Z,41.50
2023-01-20T00:56:06.683Z,25.10
2023-01-20T00:58:33.461Z,40.90
2023-01-20T01:01:00.410Z,36.40
2023-01-20T01:03:30.092Z,37.40
2023-01-20T01:06:12.687Z,32.60
2023-01-20T01:08:39.558Z,33.30
2023-01-20T01:11:06.410Z,34.60
2023-01-20T01:13:33.209Z,29.40
2023-01-20T01:16:00.175Z,30.10
2023-01-20T01:18:27.004Z,26.80
2023-01-20T01:20:53.765Z,24.20
2023-01-20T01:23:20.506Z,22.00
2023-01-20T01:25:47.291Z,28.20
2023-01-20T01:28:16.501Z,29.50
2023-01-20T01:30:43.234Z,29.60
2023-01-20T01:33:09.928Z,27.90
2023-01-20T01:35:36.633Z,29.00
2023-01-20T01:38:03.341Z,29.30
2023-01-20T01:40:30.192Z,27.70
2023-01-20T01:42:56.927Z,29.70
2023-01-20T01:45:25.891Z,30.10
2023-01-20T01:48:00.399Z,27.80
2023-01-20T01:50:33.296Z,27.20
2023-01-20T01:53:00.210Z,27.90
2023-01-20T01:55:29.319Z,18.00
2023-01-20T01:57:56.900Z,23.40
2023-01-20T02:02:50.466Z,23.20
2023-01-20T02:05:17.576Z,27.40
2023-01-20T02:07:45.476Z,18.50
2023-01-20T02:10:12.458Z,24.10
2023-01-20T02:12:39.201Z,26.20
2023-01-20T02:15:06.480Z,26.00
2023-01-20T02:18:04.863Z,24.80
2023-01-20T02:20:48.829Z,27.30
2023-01-20T02:23:34.451Z,21.50
2023-01-20T02:26:13.291Z,26.10
2023-01-20T02:29:02.058Z,23.70
2023-01-20T02:34:20.543Z,26.00
2023-01-20T02:36:52.674Z,29.30
2023-01-20T02:39:40.938Z,18.60
2023-01-20T02:42:26.764Z,25.70
2023-01-20T02:45:02.943Z,23.40
2023-01-20T02:47:41.140Z,29.90
2023-01-20T02:52:37.393Z,24.10
2023-01-20T02:55:06.758Z,18.50
2023-01-20T02:57:37.881Z,23.00
2023-01-20T03:00:34.027Z,22.40
2023-01-20T03:03:01.473Z,19.50
2023-01-20T03:05:31.644Z,24.00
2023-01-20T03:07:58.526Z,23.70
2023-01-20T03:10:25.526Z,20.70
2023-01-20T03:12:57.849Z,23.50
2023-01-20T03:15:28.974Z,31.20
2023-01-20T03:17:55.670Z,26.30
2023-01-20T03:20:22.362Z,28.50
2023-01-20T03:22:49.298Z,24.30
2023-01-20T03:25:16.218Z,29.00
2023-01-20T03:27:43.349Z,30.80
2023-01-20T03:30:14.904Z,26.50
2023-01-20T03:32:43.204Z,31.80
2023-01-20T03:35:09.999Z,26.10
2023-01-20T03:37:36.679Z,22.80
2023-01-20T03:40:03.573Z,24.80
2023-01-20T03:42:45.539Z,26.70
2023-01-20T03:45:18.196Z,27.60
2023-01-20T03:48:28.709Z,26.50
2023-01-20T03:51:01.147Z,22.40
2023-01-20T03:54:06.610Z,24.20
2023-01-20T03:56:42.717Z,26.60
2023-01-20T03:59:10.424Z,28.40
2023-01-20T04:01:39.734Z,32.50
2023-01-20T04:04:09.965Z,30.30
2023-01-20T04:06:36.666Z,30.80
2023-01-20T04:09:06.301Z,32.00
2023-01-20T04:11:33.753Z,30.50
2023-01-20T04:14:00.726Z,30.80
2023-01-20T04:16:27.490Z,33.00
2023-01-20T04:18:54.451Z,31.90
2023-01-20T04:21:35.492Z,34.50
2023-01-20T04:24:45.474Z,27.80
2023-01-20T04:27:12.208Z,29.80
2023-01-20T04:29:39.071Z,26.70
2023-01-20T04:32:06.069Z,28.70
2023-01-20T04:34:32.833Z,33.10
2023-01-20T04:36:59.537Z,30.70
2023-01-20T04:39:26.336Z,35.10
2023-01-20T04:41:53.098Z,34.00
2023-01-20T04:44:19.793Z,37.10
2023-01-20T04:46:47.537Z,30.80
2023-01-20T04:49:14.815Z,38.10
2023-01-20T04:51:41.494Z,37.60
2023-01-20T04:54:08.901Z,29.90
2023-01-20T04:59:02.437Z,30.90
2023-01-20T05:01:29.277Z,38.10
2023-01-20T05:03:56.128Z,32.40
2023-01-20T05:06:22.865Z,37.20
2023-01-20T05:08:49.764Z,28.50
2023-01-20T05:11:16.466Z,26.70
2023-01-20T05:13:43.162Z,26.30
2023-01-20T05:16:10.379Z,18.40
2023-01-20T05:18:37.264Z,25.60
2023-01-20T05:21:04.628Z,17.20
2023-01-20T05:23:31.382Z,21.80
2023-01-20T05:25:58.154Z,20.00
2023-01-20T05:28:24.939Z,25.50
2023-01-20T05:30:52.182Z,16.10
2023-01-20T05:33:21.544Z,19.40
2023-01-20T05:35:48.268Z,22.10
2023-01-20T05:38:15.008Z,21.00
2023-01-20T05:40:41.769Z,23.50
2023-01-20T05:43:08.631Z,21.90
2023-01-20T05:45:35.331Z,22.30
2023-01-20T05:48:03.146Z,17.10
2023-01-20T05:50:29.873Z,17.20
2023-01-20T05:52:56.577Z,30.50
2023-01-20T05:55:25.064Z,21.80
2023-01-20T05:57:52.050Z,26.90
2023-01-20T06:00:19.445Z,15.70
2023-01-20T06:02:46.316Z,18.20
2023-01-20T06:05:13.463Z,18.70
2023-01-20T06:07:40.518Z,24.00
2023-01-20T06:10:08.836Z,27.10
2023-01-20T06:12:35.620Z,16.20
2023-01-20T06:15:04.258Z,21.00
2023-01-20T06:17:30.946Z,21.10
2023-01-20T06:19:57.973Z,19.40
2023-01-20T06:22:26.073Z,16.40
2023-01-20T06:24:52.951Z,19.10
2023-01-20T06:27:19.928Z,20.30
2023-01-20T06:29:46.802Z,15.60
2023-01-20T06:32:13.582Z,21.90
2023-01-20T06:34:40.296Z,22.00
2023-01-20T06:37:07.038Z,17.40
2023-01-20T06:39:33.812Z,15.40
2023-01-20T06:42:00.518Z,19.50
2023-01-20T06:44:27.379Z,20.80
2023-01-20T06:46:54.397Z,15.20
2023-01-20T06:49:21.271Z,16.90
2023-01-20T06:51:48.918Z,21.00
2023-01-20T06:54:15.869Z,22.30
2023-01-20T06:56:43.246Z,17.90
2023-01-20T06:59:11.231Z,19.60
2023-01-20T07:01:38.113Z,23.10
2023-01-20T07:04:05.077Z,18.60
2023-01-20T07:06:38.791Z,14.60
2023-01-20T07:09:07.110Z,16.40
2023-01-20T07:11:35.293Z,14.80
2023-01-20T07:14:02.952Z,26.60
2023-01-20T07:16:29.867Z,22.50
2023-01-20T07:18:56.614Z,21.90
2023-01-20T07:21:26.294Z,25.90
2023-01-20T07:23:53.502Z,23.20
2023-01-20T07:26:21.925Z,21.10
2023-01-20T07:28:48.723Z,23.30
2023-01-20T07:31:19.877Z,17.10
2023-01-20T07:33:46.679Z,21.10
2023-01-20T07:36:13.951Z,16.80
2023-01-20T07:38:40.652Z,16.40
2023-01-20T07:41:11.725Z,17.70
2023-01-20T07:43:38.407Z,16.60
2023-01-20T07:46:05.446Z,14.70
2023-01-20T07:48:33.052Z,24.70
2023-01-20T07:53:32.616Z,20.60
2023-01-20T08:01:21.355Z,34.90
2023-01-20T08:03:48.789Z,32.70
2023-01-20T08:06:17.617Z,33.10
2023-01-20T08:08:44.373Z,31.90
2023-01-20T08:11:12.549Z,31.60
2023-01-20T08:13:39.660Z,31.20
2023-01-20T08:16:08.062Z,29.30
2023-01-20T08:18:35.404Z,25.90
2023-01-20T08:21:06.466Z,30.00
2023-01-20T08:23:35.865Z,23.70
2023-01-20T08:26:04.532Z,26.20
2023-01-20T08:28:31.425Z,30.30
2023-01-20T08:31:09.525Z,28.20
2023-01-20T12:34:27.114Z,23.50
2023-01-20T12:37:16.320Z,31.40
2023-01-20T12:39:57.059Z,28.40
2023-01-20T12:42:45.012Z,22.70
2023-01-20T12:45:25.091Z,17.80
2023-01-20T12:47:58.443Z,18.80
2023-01-20T12:50:25.248Z,16.00
2023-01-20T12:52:59.005Z,17.90
2023-01-20T12:55:35.868Z,25.70
2023-01-20T12:58:11.683Z,18.30
2023-01-20T13:00:46.911Z,17.60
2023-01-20T13:03:41.384Z,13.20
2023-01-20T13:06:37.784Z,13.80
2023-01-20T13:09:23.034Z,15.40
2023-01-20T13:12:11.947Z,13.90
2023-01-20T13:14:55.798Z,20.80
2023-01-20T13:17:37.175Z,15.90
2023-01-20T13:20:04.378Z,12.10
2023-01-20T13:24:58.036Z,13.50
2023-01-20T13:27:29.813Z,18.00
2023-01-20T13:29:57.789Z,16.60
2023-01-20T13:32:32.068Z,18.70
2023-01-20T13:35:01.687Z,12.70
2023-01-20T13:37:36.161Z,17.90
2023-01-20T13:40:04.541Z,14.20
2023-01-20T13:42:47.894Z,16.10
2023-01-20T13:45:16.518Z,12.70
2023-01-20T13:47:47.561Z,12.40
2023-01-20T13:50:21.063Z,17.70
2023-01-20T13:52:53.626Z,14.30
2023-01-20T13:55:46.383Z,11.20
2023-01-20T13:58:19.867Z,18.90
2023-01-20T14:01:00.599Z,14.90
2023-01-20T14:03:34.542Z,15.00
2023-01-20T14:06:06.375Z,15.50
2023-01-20T14:08:40.956Z,16.80
2023-01-20T14:11:29.022Z,16.40
2023-01-20T14:13:57.430Z,21.20
2023-01-20T14:16:44.203Z,17.40
2023-01-20T14:19:30.405Z,16.50
2023-01-20T14:22:01.004Z,19.30
2023-01-20T14:24:35.726Z,18.70
2023-01-20T14:27:05.893Z,21.50
2023-01-20T14:29:36.549Z,25.20
2023-01-20T14:32:19.415Z,21.00
2023-01-20T14:34:49.718Z,15.50
2023-01-20T14:37:32.227Z,16.80
2023-01-20T14:40:16.889Z,16.90
2023-01-20T14:42:59.381Z,14.70
2023-01-20T14:45:28.167Z,17.00
2023-01-20T14:47:55.709Z,23.50
2023-01-20T14:50:25.273Z,22.10
2023-01-20T14:52:52.372Z,19.10
2023-01-20T14:55:33.619Z,20.20
2023-01-20T14:58:01.108Z,15.70
2023-01-20T15:03:18.210Z,18.30
2023-01-20T15:06:20.203Z,14.10
2023-01-20T15:09:04.477Z,18.50
2023-01-20T15:11:32.868Z,16.20
2023-01-20T15:14:04.228Z,16.40
2023-01-20T15:16:35.347Z,14.90
2023-01-20T15:19:15.809Z,19.00
2023-01-20T15:21:46.823Z,15.50
2023-01-20T15:24:26.169Z,17.90
2023-01-20T15:26:53.192Z,17.70
2023-01-20T15:29:31.960Z,16.00
2023-01-20T15:32:08.749Z,20.90
2023-01-20T15:34:35.326Z,21.40
2023-01-20T15:37:02.355Z,26.50
2023-01-20T15:39:29.863Z,21.50
2023-01-20T15:41:57.216Z,25.20
2023-01-20T15:44:25.315Z,22.50
2023-01-20T15:46:57.104Z,25.70
2023-01-20T15:49:24.673Z,23.10
2023-01-20T15:51:51.289Z,22.30
2023-01-20T15:54:18.578Z,21.80
2023-01-20T15:56:45.059Z,25.50
2023-01-20T15:59:16.093Z,22.70
2023-01-20T16:01:46.317Z,25.80
2023-01-20T16:04:13.029Z,25.50
2023-01-20T16:06:39.551Z,26.50
2023-01-20T16:09:26.508Z,24.50
2023-01-20T16:11:53.444Z,23.00
2023-01-20T16:14:20.026Z,23.10
2023-01-20T16:16:47.191Z,20.60
2023-01-20T16:19:14.059Z,26.70
2023-01-20T16:21:41.316Z,21.10
2023-01-20T16:24:07.997Z,23.50
2023-01-20T16:29:03.987Z,22.70
2023-01-20T16:31:32.851Z,27.10
2023-01-20T16:33:59.403Z,20.80
2023-01-20T16:36:25.951Z,28.20
2023-01-20T16:38:52.623Z,26.00
2023-01-20T16:41:24.490Z,26.50
2023-01-20T16:43:52.172Z,30.20
2023-01-20T16:46:24.274Z,26.80
2023-01-20T16:48:53.673Z,23.70
2023-01-20T16:51:21.558Z,23.20
2023-01-20T16:53:48.432Z,27.30
2023-01-20T16:56:16.503Z,21.90
2023-01-20T16:58:43.472Z,23.00
2023-01-20T17:01:13.047Z,26.10
2023-01-20T17:03:40.756Z,25.70
2023-01-20T17:08:38.075Z,27.10
2023-01-20T17:11:04.829Z,25.00
2023-01-20T17:13:31.684Z,29.20
2023-01-20T17:15:58.585Z,25.50
2023-01-20T17:18:25.211Z,22.80
2023-01-20T17:20:52.181Z,22.60
2023-01-20T17:23:18.726Z,22.40
2023-01-20T17:25:45.582Z,20.80
2023-01-20T17:28:13.181Z,27.80
2023-01-20T17:30:39.730Z,23.40
2023-01-20T17:33:06.199Z,26.90
2023-01-20T17:35:32.908Z,25.20
2023-01-20T17:37:59.449Z,27.20
2023-01-20T17:40:25.949Z,25.30
2023-01-20T17:42:53.315Z,25.60
2023-01-20T17:45:20.320Z,25.20
2023-01-20T17:47:50.338Z,24.70
2023-01-20T17:50:17.402Z,27.90
2023-01-20T17:55:11.218Z,23.30
2023-01-20T17:57:37.727Z,31.80
2023-01-20T18:00:05.549Z,25.70
2023-01-20T18:02:32.257Z,23.90
2023-01-20T18:04:58.886Z,29.60
2023-01-20T18:07:25.736Z,25.60
2023-01-20T18:09:52.500Z,23.50
2023-01-20T18:12:20.866Z,25.60
2023-01-20T18:14:47.492Z,22.90
2023-01-20T18:17:14.079Z,30.30
2023-01-20T18:19:41.046Z,26.70
2023-01-20T18:22:09.761Z,25.90
2023-01-20T18:24:36.727Z,28.50
2023-01-20T18:27:03.279Z,28.10
2023-01-20T18:29:34.744Z,26.10
2023-01-20T18:32:02.273Z,25.30
2023-01-20T18:36:55.558Z,32.30
2023-01-20T18:39:23.656Z,27.20
2023-01-20T18:41:50.711Z,27.20
2023-01-20T18:44:17.778Z,25.60
2023-01-20T18:46:44.673Z,23.70
2023-01-20T18:49:14.938Z,27.90
2023-01-20T18:51:41.763Z,28.70
2023-01-20T18:54:14.017Z,26.70
2023-01-20T18:56:40.706Z,29.80
2023-01-20T18:59:07.385Z,23.90
2023-01-20T19:01:36.224Z,26.10
2023-01-20T19:04:04.850Z,28.70
2023-01-20T19:06:34.015Z,27.90
2023-01-20T19:09:01.036Z,27.70
2023-01-20T19:11:30.626Z,28.10
2023-01-20T19:13:57.788Z,29.60
2023-01-20T19:16:26.201Z,28.00
2023-01-20T19:18:57.554Z,27.50
2023-01-20T19:21:24.824Z,30.60
2023-01-20T19:23:52.711Z,29.40
2023-01-20T19:26:19.562Z,30.80
2023-01-20T19:28:47.361Z,34.20
2023-01-20T19:31:16.934Z,33.70
2023-01-20T19:33:44.526Z,32.20
2023-01-20T19:36:12.885Z,29.00
2023-01-20T19:38:42.221Z,32.80
2023-01-20T19:41:10.688Z,37.70
2023-01-20T19:43:38.953Z,33.30
2023-01-20T19:46:11.862Z,39.00
2023-01-20T19:48:39.358Z,32.30
2023-01-20T19:51:11.313Z,33.10
2023-01-20T19:53:38.435Z,38.90
2023-01-20T19:56:08.760Z,38.30
2023-01-20T19:58:35.422Z,36.50
2023-01-20T20:01:14.848Z,37.80
2023-01-20T20:03:44.150Z,36.40
2023-01-20T20:06:27.134Z,36.60
2023-01-20T20:08:56.618Z,37.60
2023-01-20T20:11:23.251Z,41.40
2023-01-20T20:13:53.927Z,44.70
2023-01-20T20:16:20.435Z,43.40
2023-01-20T20:18:51.010Z,43.80
2023-01-20T20:21:17.919Z,40.40
2023-01-20T20:23:48.511Z,47.40
2023-01-20T20:26:15.490Z,49.60
2023-01-20T20:28:42.067Z,46.70
2023-01-20T20:31:08.832Z,47.10
2023-01-20T20:33:36.011Z,46.70
2023-01-20T20:36:06.932Z,42.00
2023-01-20T20:38:36.055Z,45.30
2023-01-20T20:41:03.750Z,43.40
2023-01-20T20:46:00.627Z,46.60
2023-01-20T20:48:28.221Z,47.00
2023-01-20T20:50:55.361Z,49.30
2023-01-20T20:53:22.340Z,47.50
2023-01-20T20:55:53.179Z,45.90
2023-01-20T20:58:22.747Z,50.60
2023-01-20T21:00:50.389Z,54.70
2023-01-20T21:03:16.983Z,50.60
2023-01-20T21:05:46.464Z,60.10
2023-01-20T21:08:17.634Z,59.50
2023-01-20T21:10:47.716Z,53.00
2023-01-20T21:13:16.191Z,54.70
2023-01-20T21:15:43.725Z,55.40
2023-01-20T21:18:12.618Z,56.30
2023-01-20T21:20:39.421Z,57.30
2023-01-20T21:23:08.175Z,50.00
2023-01-20T21:25:38.647Z,51.90
2023-01-20T21:28:05.413Z,52.20
2023-01-20T21:30:32.099Z,47.30
2023-01-20T21:32:58.605Z,50.20
2023-01-20T21:35:25.088Z,48.10
2023-01-20T21:37:52.355Z,50.40
2023-01-20T21:40:19.322Z,47.40
2023-01-20T21:42:46.277Z,50.60
2023-01-20T21:45:13.030Z,48.30
2023-01-20T21:47:39.825Z,47.60
2023-01-20T21:50:28.453Z,47.50
2023-01-20T21:55:23.419Z,48.20
2023-01-20T21:57:51.351Z,54.40
2023-01-20T22:00:19.107Z,44.90
2023-01-20T22:05:17.715Z,49.10
2023-01-20T22:10:14.052Z,52.20
2023-01-20T22:15:08.310Z,50.60
2023-01-20T22:17:35.807Z,46.40
2023-01-20T22:20:02.467Z,45.00
2023-01-20T22:22:29.354Z,49.50
2023-01-20T22:24:56.182Z,47.40
2023-01-20T22:27:22.740Z,48.50
2023-01-20T22:29:49.320Z,47.20
2023-01-20T22:32:16.452Z,51.50
2023-01-20T22:34:43.180Z,45.10
2023-01-20T22:37:09.659Z,46.70
2023-01-20T22:39:37.443Z,50.30
2023-01-20T22:42:04.101Z,47.10
2023-01-20T22:44:30.673Z,48.70
2023-01-20T22:46:58.761Z,48.00
2023-01-20T22:49:25.390Z,48.90
2023-01-20T22:51:54.426Z,47.40
2023-01-20T22:54:22.521Z,45.40
2023-01-20T22:56:49.024Z,45.40
2023-01-20T22:59:16.123Z,45.40
2023-01-20T23:01:42.774Z,47.50
2023-01-20T23:04:09.739Z,49.20
2023-01-20T23:06:39.464Z,51.50
2023-01-20T23:09:08.003Z,50.80
2023-01-20T23:11:35.702Z,47.30
2023-01-20T23:14:02.465Z,48.30
2023-01-20T23:16:31.786Z,49.20
2023-01-20T23:18:58.518Z,52.90
2023-01-20T23:21:26.568Z,48.10
2023-01-20T23:23:53.804Z,53.00
2023-01-20T23:26:24.405Z,47.20
2023-01-20T23:28:52.813Z,50.50
2023-01-20T23:31:20.411Z,59.30
2023-01-20T23:33:47.289Z,46.90
2023-01-20T23:36:15.491Z,49.20
2023-01-20T23:38:42.293Z,56.60
2023-01-20T23:41:09.265Z,53.90
2023-01-20T23:43:36.038Z,48.60
2023-01-20T23:46:04.185Z,56.70
2023-01-20T23:48:31.137Z,50.70
2023-01-20T23:51:02.029Z,50.20
2023-01-20T23:53:30.547Z,59.20
2023-01-20T23:56:21.127Z,57.90
2023-01-20T23:58:48.912Z,65.00
